sensor_id;sensor_type;location;lat;lon;timestamp;pressure;altitude;pressure_sealevel;temperature;humidity
3082;BME280;1551;51.046;7.010;2023-03-29T00:02:29;101119.69;;;7.09;79.48
3082;BME280;1551;51.046;7.010;2023-03-29T00:05:22;101113.72;;;7.08;79.85
3082;BME280;1551;51.046;7.010;2023-03-29T00:08:13;101118.03;;;7.14;79.55
3082;BME280;1551;51.046;7.010;2023-03-29T00:11:02;101103.69;;;7.20;79.55
3082;BME280;1551;51.046;7.010;2023-03-29T00:13:52;101103.75;;;7.28;79.25
3082;BME280;1551;51.046;7.010;2023-03-29T00:16:41;101105.44;;;7.26;79.29
3082;BME280;1551;51.046;7.010;2023-03-29T00:19:32;101096.16;;;7.31;79.62
3082;BME280;1551;51.046;7.010;2023-03-29T00:22:24;101101.13;;;7.20;78.61
3082;BME280;1551;51.046;7.010;2023-03-29T00:25:14;101097.72;;;7.18;79.14
3082;BME280;1551;51.046;7.010;2023-03-29T00:28:03;101093.53;;;7.22;79.13
3082;BME280;1551;51.046;7.010;2023-03-29T00:30:52;101089.28;;;7.22;78.93
3082;BME280;1551;51.046;7.010;2023-03-29T00:33:42;101092.72;;;7.27;79.00
3082;BME280;1551;51.046;7.010;2023-03-29T00:36:31;101098.81;;;7.41;78.65
3082;BME280;1551;51.046;7.010;2023-03-29T00:39:20;101088.59;;;7.40;78.01
3082;BME280;1551;51.046;7.010;2023-03-29T00:42:15;101080.03;;;7.32;78.14
3082;BME280;1551;51.046;7.010;2023-03-29T00:45:16;101079.25;;;7.39;77.58
3082;BME280;1551;51.046;7.010;2023-03-29T00:48:09;101079.28;;;7.43;78.21
3082;BME280;1551;51.046;7.010;2023-03-29T00:51:02;101074.22;;;7.45;77.73
3082;BME280;1551;51.046;7.010;2023-03-29T00:53:56;101064.94;;;7.50;77.73
3082;BME280;1551;51.046;7.010;2023-03-29T00:56:49;101060.69;;;7.50;77.84
3082;BME280;1551;51.046;7.010;2023-03-29T00:59:39;101057.31;;;7.51;77.53
3082;BME280;1551;51.046;7.010;2023-03-29T01:02:31;101052.13;;;7.42;77.42
3082;BME280;1551;51.046;7.010;2023-03-29T01:05:25;101060.59;;;7.38;77.25
3082;BME280;1551;51.046;7.010;2023-03-29T01:08:28;101056.38;;;7.43;77.66
3082;BME280;1551;51.046;7.010;2023-03-29T01:11:23;101052.16;;;7.45;77.51
3082;BME280;1551;51.046;7.010;2023-03-29T01:14:21;101048.81;;;7.49;77.29
3082;BME280;1551;51.046;7.010;2023-03-29T01:17:12;101044.53;;;7.48;77.16
3082;BME280;1551;51.046;7.010;2023-03-29T01:20:09;101049.66;;;7.53;76.59
3082;BME280;1551;51.046;7.010;2023-03-29T01:26:20;101039.50;;;7.56;77.24
3082;BME280;1551;51.046;7.010;2023-03-29T01:29:25;101031.03;;;7.57;76.69
3082;BME280;1551;51.046;7.010;2023-03-29T01:32:20;101036.16;;;7.61;77.12
3082;BME280;1551;51.046;7.010;2023-03-29T01:35:20;101034.50;;;7.68;76.91
3082;BME280;1551;51.046;7.010;2023-03-29T01:38:21;101020.91;;;7.66;76.73
3082;BME280;1551;51.046;7.010;2023-03-29T01:41:11;101024.38;;;7.76;76.75
3082;BME280;1551;51.046;7.010;2023-03-29T01:44:07;101021.81;;;7.74;76.10
3082;BME280;1551;51.046;7.010;2023-03-29T01:47:09;101009.91;;;7.69;76.55
3082;BME280;1551;51.046;7.010;2023-03-29T01:50:16;101014.97;;;7.66;76.18
3082;BME280;1551;51.046;7.010;2023-03-29T01:56:27;101014.13;;;7.67;75.94
3082;BME280;1551;51.046;7.010;2023-03-29T01:59:19;101018.41;;;7.72;76.36
3082;BME280;1551;51.046;7.010;2023-03-29T02:02:12;101009.88;;;7.66;76.50
3082;BME280;1551;51.046;7.010;2023-03-29T02:05:04;101004.78;;;7.66;76.16
3082;BME280;1551;51.046;7.010;2023-03-29T02:07:55;101000.53;;;7.69;76.15
3082;BME280;1551;51.046;7.010;2023-03-29T02:10:46;100991.25;;;7.77;76.16
3082;BME280;1551;51.046;7.010;2023-03-29T02:13:36;100986.13;;;7.74;75.95
3082;BME280;1551;51.046;7.010;2023-03-29T02:16:25;100981.00;;;7.70;75.55
3082;BME280;1551;51.046;7.010;2023-03-29T02:19:14;100949.50;;;7.54;75.62
3082;BME280;1551;51.046;7.010;2023-03-29T02:22:08;100970.81;;;7.63;75.46
3082;BME280;1551;51.046;7.010;2023-03-29T02:25:04;100977.63;;;7.71;76.33
3082;BME280;1551;51.046;7.010;2023-03-29T02:27:56;100980.16;;;7.69;76.01
3082;BME280;1551;51.046;7.010;2023-03-29T02:30:53;100980.22;;;7.75;76.69
3082;BME280;1551;51.046;7.010;2023-03-29T02:36:46;100977.69;;;7.78;75.52
3082;BME280;1551;51.046;7.010;2023-03-29T02:39:36;100965.78;;;7.76;75.72
3082;BME280;1551;51.046;7.010;2023-03-29T02:42:26;100958.16;;;7.80;75.39
3082;BME280;1551;51.046;7.010;2023-03-29T02:45:17;100959.00;;;7.78;75.46
3082;BME280;1551;51.046;7.010;2023-03-29T02:48:09;100955.59;;;7.79;75.09
3082;BME280;1551;51.046;7.010;2023-03-29T02:51:06;100960.69;;;7.77;75.19
3082;BME280;1551;51.046;7.010;2023-03-29T02:54:02;100968.31;;;7.73;75.32
3082;BME280;1551;51.046;7.010;2023-03-29T02:56:59;100945.28;;;7.56;75.73
3082;BME280;1551;51.046;7.010;2023-03-29T02:59:49;100965.78;;;7.79;75.93
3082;BME280;1551;51.046;7.010;2023-03-29T03:02:38;100973.50;;;7.91;75.48
3082;BME280;1551;51.046;7.010;2023-03-29T03:05:28;100973.53;;;7.94;75.43
3082;BME280;1551;51.046;7.010;2023-03-29T03:08:18;100966.72;;;7.96;75.28
3082;BME280;1551;51.046;7.010;2023-03-29T03:11:07;100965.88;;;7.94;74.80
3082;BME280;1551;51.046;7.010;2023-03-29T03:13:56;100961.66;;;8.00;75.08
3082;BME280;1551;51.046;7.010;2023-03-29T03:16:45;100966.75;;;8.02;75.12
3082;BME280;1551;51.046;7.010;2023-03-29T03:19:35;100959.09;;;7.96;75.16
3082;BME280;1551;51.046;7.010;2023-03-29T03:22:24;100951.44;;;7.97;75.19
3082;BME280;1551;51.046;7.010;2023-03-29T03:25:18;100955.72;;;7.97;74.72
3082;BME280;1551;51.046;7.010;2023-03-29T03:28:10;100963.31;;;7.94;74.94
3082;BME280;1551;51.046;7.010;2023-03-29T03:31:00;100958.28;;;8.03;75.21
3082;BME280;1551;51.046;7.010;2023-03-29T03:34:08;100969.34;;;8.06;74.80
3082;BME280;1551;51.046;7.010;2023-03-29T03:37:10;100942.94;;;8.00;74.97
3082;BME280;1551;51.046;7.010;2023-03-29T03:40:00;100951.53;;;8.15;74.15
3082;BME280;1551;51.046;7.010;2023-03-29T03:42:53;100941.34;;;8.15;74.56
3082;BME280;1551;51.046;7.010;2023-03-29T03:45:42;100937.06;;;8.14;74.39
3082;BME280;1551;51.046;7.010;2023-03-29T03:48:37;100931.16;;;8.15;74.01
3082;BME280;1551;51.046;7.010;2023-03-29T03:51:47;100934.53;;;8.19;74.06
3082;BME280;1551;51.046;7.010;2023-03-29T03:54:36;100931.16;;;8.24;74.12
3082;BME280;1551;51.046;7.010;2023-03-29T03:57:46;100926.97;;;8.32;74.67
3082;BME280;1551;51.046;7.010;2023-03-29T04:00:37;100926.97;;;8.37;73.92
3082;BME280;1551;51.046;7.010;2023-03-29T04:03:48;100927.00;;;8.39;73.93
3082;BME280;1551;51.046;7.010;2023-03-29T04:06:39;100927.00;;;8.40;73.59
3082;BME280;1551;51.046;7.010;2023-03-29T04:09:47;100915.94;;;8.49;73.39
3082;BME280;1551;51.046;7.010;2023-03-29T04:12:48;100921.94;;;8.51;73.83
3082;BME280;1551;51.046;7.010;2023-03-29T04:15:37;100921.09;;;8.53;74.03
3082;BME280;1551;51.046;7.010;2023-03-29T04:18:29;100919.38;;;8.58;74.04
3082;BME280;1551;51.046;7.010;2023-03-29T04:21:21;100920.25;;;8.66;73.02
3082;BME280;1551;51.046;7.010;2023-03-29T04:24:11;100920.22;;;8.59;72.74
3082;BME280;1551;51.046;7.010;2023-03-29T04:27:03;100925.34;;;8.62;72.60
3082;BME280;1551;51.046;7.010;2023-03-29T04:29:53;100929.59;;;8.61;73.12
3082;BME280;1551;51.046;7.010;2023-03-29T04:33:09;100924.50;;;8.64;72.94
3082;BME280;1551;51.046;7.010;2023-03-29T04:36:00;100926.22;;;8.71;72.96
3082;BME280;1551;51.046;7.010;2023-03-29T04:38:49;100922.81;;;8.74;72.43
3082;BME280;1551;51.046;7.010;2023-03-29T04:41:41;100914.28;;;8.70;72.19
3082;BME280;1551;51.046;7.010;2023-03-29T04:44:41;100915.97;;;8.70;72.33
3082;BME280;1551;51.046;7.010;2023-03-29T04:47:32;100916.00;;;8.58;72.82
3082;BME280;1551;51.046;7.010;2023-03-29T04:50:30;100910.88;;;8.58;73.49
3082;BME280;1551;51.046;7.010;2023-03-29T04:53:20;100909.16;;;8.58;73.44
3082;BME280;1551;51.046;7.010;2023-03-29T04:56:11;100907.47;;;8.62;73.69
3082;BME280;1551;51.046;7.010;2023-03-29T04:59:39;100910.03;;;8.60;73.74
3082;BME280;1551;51.046;7.010;2023-03-29T05:02:40;100905.75;;;8.56;73.56
3082;BME280;1551;51.046;7.010;2023-03-29T05:05:30;100898.97;;;8.57;73.34
3082;BME280;1551;51.046;7.010;2023-03-29T05:08:23;100893.03;;;8.53;74.31
3082;BME280;1551;51.046;7.010;2023-03-29T05:11:32;100900.69;;;8.53;74.54
3082;BME280;1551;51.046;7.010;2023-03-29T05:14:22;100901.50;;;8.58;74.32
3082;BME280;1551;51.046;7.010;2023-03-29T05:17:11;100901.53;;;8.61;74.95
3082;BME280;1551;51.046;7.010;2023-03-29T05:20:01;100897.28;;;8.65;74.31
3082;BME280;1551;51.046;7.010;2023-03-29T05:22:56;100899.84;;;8.62;74.52
3082;BME280;1551;51.046;7.010;2023-03-29T05:26:12;100891.31;;;8.66;74.16
3082;BME280;1551;51.046;7.010;2023-03-29T05:29:03;100886.25;;;8.67;74.53
3082;BME280;1551;51.046;7.010;2023-03-29T05:31:52;100879.44;;;8.69;74.20
3082;BME280;1551;51.046;7.010;2023-03-29T05:34:41;100877.72;;;8.68;73.54
3082;BME280;1551;51.046;7.010;2023-03-29T05:37:31;100883.69;;;8.67;73.56
3082;BME280;1551;51.046;7.010;2023-03-29T05:40:23;100878.59;;;8.72;73.02
3082;BME280;1551;51.046;7.010;2023-03-29T05:43:33;100886.22;;;8.79;73.50
3082;BME280;1551;51.046;7.010;2023-03-29T05:46:22;100875.16;;;8.82;72.82
3082;BME280;1551;51.046;7.010;2023-03-29T05:49:15;100874.31;;;8.80;72.97
3082;BME280;1551;51.046;7.010;2023-03-29T05:52:17;100873.47;;;8.87;72.86
3082;BME280;1551;51.046;7.010;2023-03-29T05:55:07;100878.56;;;8.91;71.92
3082;BME280;1551;51.046;7.010;2023-03-29T05:57:57;100874.31;;;8.95;72.79
3082;BME280;1551;51.046;7.010;2023-03-29T06:00:51;100868.34;;;8.96;71.95
3082;BME280;1551;51.046;7.010;2023-03-29T06:03:58;100864.97;;;9.02;71.56
3082;BME280;1551;51.046;7.010;2023-03-29T06:06:54;100866.66;;;9.04;71.62
3082;BME280;1551;51.046;7.010;2023-03-29T06:09:44;100875.16;;;9.08;72.03
3082;BME280;1551;51.046;7.010;2023-03-29T06:12:33;100869.22;;;9.07;71.52
3082;BME280;1551;51.046;7.010;2023-03-29T06:15:23;100873.44;;;9.16;71.54
3082;BME280;1551;51.046;7.010;2023-03-29T06:18:18;100882.78;;;9.20;71.68
3082;BME280;1551;51.046;7.010;2023-03-29T06:21:09;100888.75;;;9.20;71.05
3082;BME280;1551;51.046;7.010;2023-03-29T06:23:59;100891.31;;;9.29;71.23
3082;BME280;1551;51.046;7.010;2023-03-29T06:26:50;100887.91;;;9.30;71.62
3082;BME280;1551;51.046;7.010;2023-03-29T06:29:40;100887.91;;;9.23;70.86
3082;BME280;1551;51.046;7.010;2023-03-29T06:32:30;100895.56;;;9.29;71.30
3082;BME280;1551;51.046;7.010;2023-03-29T06:35:29;100893.84;;;9.31;71.07
3082;BME280;1551;51.046;7.010;2023-03-29T06:38:26;100891.28;;;9.34;70.35
3082;BME280;1551;51.046;7.010;2023-03-29T06:41:33;100892.13;;;9.31;70.23
3082;BME280;1551;51.046;7.010;2023-03-29T06:44:28;100894.69;;;9.36;70.29
3082;BME280;1551;51.046;7.010;2023-03-29T06:47:25;100900.66;;;9.47;70.29
3082;BME280;1551;51.046;7.010;2023-03-29T06:50:19;100895.53;;;9.47;69.71
3082;BME280;1551;51.046;7.010;2023-03-29T06:53:32;100892.09;;;9.48;69.34
3082;BME280;1551;51.046;7.010;2023-03-29T06:56:24;100901.47;;;9.50;69.16
3082;BME280;1551;51.046;7.010;2023-03-29T06:59:20;100908.28;;;9.48;68.91
3082;BME280;1551;51.046;7.010;2023-03-29T07:02:18;100906.56;;;9.55;68.72
3082;BME280;1551;51.046;7.010;2023-03-29T07:05:11;100915.06;;;9.66;68.97
3082;BME280;1551;51.046;7.010;2023-03-29T07:08:07;100916.75;;;9.68;68.70
3082;BME280;1551;51.046;7.010;2023-03-29T07:11:19;100911.66;;;9.67;67.89
3082;BME280;1551;51.046;7.010;2023-03-29T07:14:16;100902.28;;;9.75;68.37
3082;BME280;1551;51.046;7.010;2023-03-29T07:17:07;100892.06;;;9.75;68.03
3082;BME280;1551;51.046;7.010;2023-03-29T07:20:01;100904.81;;;9.70;67.70
3082;BME280;1551;51.046;7.010;2023-03-29T07:23:05;100903.97;;;9.75;68.11
3082;BME280;1551;51.046;7.010;2023-03-29T07:25:54;100897.13;;;9.81;68.38
3082;BME280;1551;51.046;7.010;2023-03-29T07:28:44;100902.16;;;9.99;67.75
3082;BME280;1551;51.046;7.010;2023-03-29T07:31:35;100910.63;;;10.06;67.23
3082;BME280;1551;51.046;7.010;2023-03-29T07:34:58;100909.84;;;10.01;67.45
3082;BME280;1551;51.046;7.010;2023-03-29T07:37:55;100908.97;;;10.05;67.04
3082;BME280;1551;51.046;7.010;2023-03-29T07:40:46;100901.28;;;10.05;66.87
3082;BME280;1551;51.046;7.010;2023-03-29T07:44:02;100900.41;;;10.13;67.62
3082;BME280;1551;51.046;7.010;2023-03-29T07:46:56;100908.94;;;10.17;67.12
3082;BME280;1551;51.046;7.010;2023-03-29T07:49:48;100915.75;;;10.19;66.86
3082;BME280;1551;51.046;7.010;2023-03-29T07:52:37;100908.84;;;10.33;67.34
3082;BME280;1551;51.046;7.010;2023-03-29T07:55:27;100904.53;;;10.42;66.71
3082;BME280;1551;51.046;7.010;2023-03-29T07:58:26;100908.78;;;10.41;67.06
3082;BME280;1551;51.046;7.010;2023-03-29T08:01:16;100909.59;;;10.52;66.80
3082;BME280;1551;51.046;7.010;2023-03-29T08:04:27;100917.25;;;10.51;66.52
3082;BME280;1551;51.046;7.010;2023-03-29T08:07:48;100919.72;;;10.69;66.74
3082;BME280;1551;51.046;7.010;2023-03-29T08:10:57;100917.91;;;10.81;66.30
3082;BME280;1551;51.046;7.010;2023-03-29T08:13:55;100916.19;;;10.85;66.77
3082;BME280;1551;51.046;7.010;2023-03-29T08:17:09;100912.63;;;11.01;65.96
3082;BME280;1551;51.046;7.010;2023-03-29T08:20:06;100908.28;;;11.09;65.58
3082;BME280;1551;51.046;7.010;2023-03-29T08:22:59;100910.78;;;11.17;65.26
3082;BME280;1551;51.046;7.010;2023-03-29T08:26:07;100908.25;;;11.14;64.40
3082;BME280;1551;51.046;7.010;2023-03-29T08:29:00;100905.56;;;11.26;65.12
3082;BME280;1551;51.046;7.010;2023-03-29T08:31:50;100907.22;;;11.34;63.92
3082;BME280;1551;51.046;7.010;2023-03-29T08:34:39;100912.09;;;11.57;64.34
3082;BME280;1551;51.046;7.010;2023-03-29T08:37:39;100905.06;;;11.77;63.42
3082;BME280;1551;51.046;7.010;2023-03-29T08:40:28;100894.63;;;11.92;63.08
3082;BME280;1551;51.046;7.010;2023-03-29T08:43:45;100909.09;;;11.99;61.91
3082;BME280;1551;51.046;7.010;2023-03-29T08:47:09;100908.19;;;12.02;62.14
3082;BME280;1551;51.046;7.010;2023-03-29T08:50:04;100901.47;;;11.92;62.46
3082;BME280;1551;51.046;7.010;2023-03-29T08:53:07;100893.81;;;11.89;62.10
3082;BME280;1551;51.046;7.010;2023-03-29T08:56:36;100905.84;;;11.85;62.50
3082;BME280;1551;51.046;7.010;2023-03-29T08:59:31;100906.44;;;12.07;62.97
3082;BME280;1551;51.046;7.010;2023-03-29T09:02:30;100896.06;;;12.13;61.86
3082;BME280;1551;51.046;7.010;2023-03-29T09:05:27;100887.72;;;11.97;62.00
3082;BME280;1551;51.046;7.010;2023-03-29T09:08:29;100893.66;;;12.02;62.39
3082;BME280;1551;51.046;7.010;2023-03-29T09:14:25;100894.34;;;12.15;62.27
3082;BME280;1551;51.046;7.010;2023-03-29T09:20:33;100904.59;;;12.15;61.98
3082;BME280;1551;51.046;7.010;2023-03-29T09:23:39;100896.97;;;12.12;62.40
3082;BME280;1551;51.046;7.010;2023-03-29T09:26:53;100904.50;;;12.22;62.69
3082;BME280;1551;51.046;7.010;2023-03-29T09:30:04;100903.56;;;12.29;62.33
3082;BME280;1551;51.046;7.010;2023-03-29T09:33:21;100902.53;;;12.41;62.29
3082;BME280;1551;51.046;7.010;2023-03-29T09:36:52;100894.78;;;12.44;62.16
3082;BME280;1551;51.046;7.010;2023-03-29T09:39:43;100890.44;;;12.48;62.09
3082;BME280;1551;51.046;7.010;2023-03-29T09:42:37;100897.28;;;12.49;61.98
3082;BME280;1551;51.046;7.010;2023-03-29T09:45:27;100891.16;;;12.57;61.70
3082;BME280;1551;51.046;7.010;2023-03-29T09:48:17;100893.66;;;12.63;61.98
3082;BME280;1551;51.046;7.010;2023-03-29T09:51:20;100890.00;;;12.76;62.01
3082;BME280;1551;51.046;7.010;2023-03-29T09:54:10;100889.78;;;12.91;61.71
3082;BME280;1551;51.046;7.010;2023-03-29T09:57:32;100864.22;;;12.84;61.53
3082;BME280;1551;51.046;7.010;2023-03-29T10:00:21;100887.94;;;12.98;61.26
3082;BME280;1551;51.046;7.010;2023-03-29T10:06:13;100872.50;;;12.99;61.56
3082;BME280;1551;51.046;7.010;2023-03-29T10:09:20;100884.50;;;13.00;61.34
3082;BME280;1551;51.046;7.010;2023-03-29T10:12:14;100876.81;;;12.97;61.89
3082;BME280;1551;51.046;7.010;2023-03-29T10:15:05;100873.97;;;13.16;61.43
3082;BME280;1551;51.046;7.010;2023-03-29T10:17:59;100878.25;;;13.17;61.60
3082;BME280;1551;51.046;7.010;2023-03-29T10:20:49;100873.13;;;13.15;61.64
3082;BME280;1551;51.046;7.010;2023-03-29T10:23:38;100864.03;;;13.43;61.45
3082;BME280;1551;51.046;7.010;2023-03-29T10:26:30;100855.25;;;13.55;60.70
3082;BME280;1551;51.046;7.010;2023-03-29T10:29:22;100870.44;;;13.65;60.46
3082;BME280;1551;51.046;7.010;2023-03-29T10:32:21;100871.41;;;13.60;60.33
3082;BME280;1551;51.046;7.010;2023-03-29T10:35:20;100861.94;;;13.63;59.97
3082;BME280;1551;51.046;7.010;2023-03-29T10:38:16;100874.88;;;13.59;60.18
3082;BME280;1551;51.046;7.010;2023-03-29T10:41:09;100867.94;;;13.64;60.28
3082;BME280;1551;51.046;7.010;2023-03-29T10:44:00;100871.88;;;13.78;60.03
3082;BME280;1551;51.046;7.010;2023-03-29T10:46:49;100869.72;;;14.00;59.26
3082;BME280;1551;51.046;7.010;2023-03-29T10:49:44;100867.91;;;14.45;58.66
3082;BME280;1551;51.046;7.010;2023-03-29T10:52:34;100867.50;;;14.62;57.83
3082;BME280;1551;51.046;7.010;2023-03-29T10:55:40;100862.06;;;15.07;57.64
3082;BME280;1551;51.046;7.010;2023-03-29T11:04:57;100838.69;;;15.76;54.54
3082;BME280;1551;51.046;7.010;2023-03-29T11:18:29;100835.31;;;16.59;53.66
3082;BME280;1551;51.046;7.010;2023-03-29T11:24:51;100851.06;;;15.95;54.82
3082;BME280;1551;51.046;7.010;2023-03-29T11:27:58;100840.34;;;15.79;55.56
3082;BME280;1551;51.046;7.010;2023-03-29T11:37:56;100825.94;;;15.72;56.51
3082;BME280;1551;51.046;7.010;2023-03-29T11:41:10;100816.56;;;16.25;55.84
3082;BME280;1551;51.046;7.010;2023-03-29T11:44:26;100813.47;;;16.68;54.33
3082;BME280;1551;51.046;7.010;2023-03-29T11:47:20;100811.66;;;16.71;53.75
3082;BME280;1551;51.046;7.010;2023-03-29T11:50:18;100813.84;;;16.57;53.77
3082;BME280;1551;51.046;7.010;2023-03-29T11:53:12;100798.88;;;16.39;54.95
3082;BME280;1551;51.046;7.010;2023-03-29T11:56:11;100803.19;;;16.40;55.64
3082;BME280;1551;51.046;7.010;2023-03-29T11:59:08;100787.53;;;16.44;55.20
3082;BME280;1551;51.046;7.010;2023-03-29T12:04:58;100782.63;;;16.63;55.24
3082;BME280;1551;51.046;7.010;2023-03-29T12:08:08;100803.19;;;17.40;53.70
3082;BME280;1551;51.046;7.010;2023-03-29T12:11:06;100793.97;;;17.56;52.14
3082;BME280;1551;51.046;7.010;2023-03-29T12:14:00;100799.88;;;17.37;52.55
3082;BME280;1551;51.046;7.010;2023-03-29T12:17:02;100792.41;;;17.52;52.74
3082;BME280;1551;51.046;7.010;2023-03-29T12:20:05;100789.22;;;17.44;52.20
3082;BME280;1551;51.046;7.010;2023-03-29T12:23:01;100785.91;;;17.17;52.68
3082;BME280;1551;51.046;7.010;2023-03-29T12:39:18;100753.34;;;17.81;52.78
3082;BME280;1551;51.046;7.010;2023-03-29T12:42:50;100756.50;;;18.53;52.08
3082;BME280;1551;51.046;7.010;2023-03-29T12:46:18;100750.84;;;19.80;49.03
3082;BME280;1551;51.046;7.010;2023-03-29T12:49:24;100756.09;;;20.14;47.79
3082;BME280;1551;51.046;7.010;2023-03-29T12:52:34;100742.75;;;21.07;45.84
3082;BME280;1551;51.046;7.010;2023-03-29T12:55:47;100743.97;;;22.27;43.58
3082;BME280;1551;51.046;7.010;2023-03-29T12:58:48;100750.75;;;21.84;43.63
3082;BME280;1551;51.046;7.010;2023-03-29T13:01:38;100746.13;;;21.09;44.94
3082;BME280;1551;51.046;7.010;2023-03-29T13:04:50;100740.56;;;20.48;45.92
3082;BME280;1551;51.046;7.010;2023-03-29T13:07:45;100738.50;;;19.66;48.09
3082;BME280;1551;51.046;7.010;2023-03-29T13:10:41;100738.09;;;19.57;48.78
3082;BME280;1551;51.046;7.010;2023-03-29T13:13:36;100741.25;;;20.69;47.47
3082;BME280;1551;51.046;7.010;2023-03-29T13:16:32;100724.75;;;22.28;44.01
3082;BME280;1551;51.046;7.010;2023-03-29T13:19:33;100727.56;;;22.25;42.92
3082;BME280;1551;51.046;7.010;2023-03-29T13:22:50;100715.34;;;21.00;45.12
3082;BME280;1551;51.046;7.010;2023-03-29T13:29:13;100734.78;;;20.93;45.97
3082;BME280;1551;51.046;7.010;2023-03-29T13:32:10;100734.00;;;20.41;45.87
3082;BME280;1551;51.046;7.010;2023-03-29T13:38:06;100740.47;;;19.61;47.61
3082;BME280;1551;51.046;7.010;2023-03-29T13:41:10;100729.97;;;20.17;47.46
3082;BME280;1551;51.046;7.010;2023-03-29T13:44:38;100711.28;;;19.92;47.50
3082;BME280;1551;51.046;7.010;2023-03-29T13:50:32;100704.44;;;19.35;48.48
3082;BME280;1551;51.046;7.010;2023-03-29T13:53:25;100697.19;;;19.79;48.31
3082;BME280;1551;51.046;7.010;2023-03-29T13:56:24;100699.34;;;19.52;48.86
3082;BME280;1551;51.046;7.010;2023-03-29T13:59:17;100692.19;;;19.20;49.72
3082;BME280;1551;51.046;7.010;2023-03-29T14:02:15;100681.72;;;19.03;49.61
3082;BME280;1551;51.046;7.010;2023-03-29T14:05:11;100670.03;;;18.74;50.09
3082;BME280;1551;51.046;7.010;2023-03-29T14:08:09;100659.03;;;18.49;51.13
3082;BME280;1551;51.046;7.010;2023-03-29T14:11:02;100659.09;;;18.47;51.61
3082;BME280;1551;51.046;7.010;2023-03-29T14:13:53;100655.41;;;18.53;51.59
3082;BME280;1551;51.046;7.010;2023-03-29T14:16:43;100653.00;;;18.48;51.92
3082;BME280;1551;51.046;7.010;2023-03-29T14:19:35;100662.06;;;18.18;52.27
3082;BME280;1551;51.046;7.010;2023-03-29T14:22:31;100649.13;;;17.97;52.63
3082;BME280;1551;51.046;7.010;2023-03-29T14:25:21;100641.47;;;17.94;52.93
3082;BME280;1551;51.046;7.010;2023-03-29T14:28:24;100645.19;;;17.88;52.83
3082;BME280;1551;51.046;7.010;2023-03-29T14:34:13;100640.50;;;17.76;53.05
3082;BME280;1551;51.046;7.010;2023-03-29T14:37:02;100610.59;;;17.89;53.49
3082;BME280;1551;51.046;7.010;2023-03-29T14:39:52;100627.22;;;18.05;52.64
3082;BME280;1551;51.046;7.010;2023-03-29T14:42:42;100610.09;;;18.01;52.91
3082;BME280;1551;51.046;7.010;2023-03-29T14:45:31;100609.00;;;18.07;52.84
3082;BME280;1551;51.046;7.010;2023-03-29T14:48:21;100615.91;;;18.26;52.38
3082;BME280;1551;51.046;7.010;2023-03-29T14:51:11;100622.03;;;18.25;52.21
3082;BME280;1551;51.046;7.010;2023-03-29T14:54:02;100618.91;;;18.17;52.23
3082;BME280;1551;51.046;7.010;2023-03-29T14:56:51;100630.03;;;18.19;52.44
3082;BME280;1551;51.046;7.010;2023-03-29T14:59:41;100616.84;;;18.25;52.48
3082;BME280;1551;51.046;7.010;2023-03-29T15:02:32;100612.06;;;18.16;53.02
3082;BME280;1551;51.046;7.010;2023-03-29T15:05:27;100611.78;;;18.22;53.19
3082;BME280;1551;51.046;7.010;2023-03-29T15:08:28;100609.06;;;18.25;53.03
3082;BME280;1551;51.046;7.010;2023-03-29T15:11:22;100602.34;;;18.21;52.75
3082;BME280;1551;51.046;7.010;2023-03-29T15:14:14;100595.47;;;18.20;52.65
3082;BME280;1551;51.046;7.010;2023-03-29T15:17:29;100583.88;;;18.09;52.77
3082;BME280;1551;51.046;7.010;2023-03-29T15:20:30;100597.38;;;18.17;53.10
3082;BME280;1551;51.046;7.010;2023-03-29T15:23:23;100580.44;;;18.08;53.06
3082;BME280;1551;51.046;7.010;2023-03-29T15:26:34;100579.97;;;17.99;53.23
3082;BME280;1551;51.046;7.010;2023-03-29T15:29:32;100577.41;;;17.99;53.45
3082;BME280;1551;51.046;7.010;2023-03-29T15:32:33;100579.78;;;17.83;53.69
3082;BME280;1551;51.046;7.010;2023-03-29T15:35:23;100575.78;;;17.76;54.15
3082;BME280;1551;51.046;7.010;2023-03-29T15:38:13;100576.03;;;17.70;54.19
3082;BME280;1551;51.046;7.010;2023-03-29T15:41:02;100562.94;;;17.73;54.18
3082;BME280;1551;51.046;7.010;2023-03-29T15:43:57;100555.44;;;17.67;54.42
3082;BME280;1551;51.046;7.010;2023-03-29T15:46:46;100553.72;;;17.67;54.63
3082;BME280;1551;51.046;7.010;2023-03-29T15:49:35;100539.91;;;17.67;54.86
3082;BME280;1551;51.046;7.010;2023-03-29T15:52:24;100537.03;;;17.74;55.07
3082;BME280;1551;51.046;7.010;2023-03-29T15:55:13;100528.34;;;17.75;54.67
3082;BME280;1551;51.046;7.010;2023-03-29T15:58:02;100530.25;;;17.70;54.96
3082;BME280;1551;51.046;7.010;2023-03-29T16:04:04;100519.41;;;17.62;55.42
3082;BME280;1551;51.046;7.010;2023-03-29T16:06:54;100509.91;;;17.63;55.21
3082;BME280;1551;51.046;7.010;2023-03-29T16:09:44;100512.53;;;17.61;55.29
3082;BME280;1551;51.046;7.010;2023-03-29T16:12:34;100504.84;;;17.60;55.53
3082;BME280;1551;51.046;7.010;2023-03-29T16:15:25;100502.19;;;17.61;55.36
3082;BME280;1551;51.046;7.010;2023-03-29T16:18:14;100484.50;;;17.71;55.39
3082;BME280;1551;51.046;7.010;2023-03-29T16:21:04;100489.09;;;17.84;55.15
3082;BME280;1551;51.046;7.010;2023-03-29T16:23:53;100483.16;;;17.82;55.10
3082;BME280;1551;51.046;7.010;2023-03-29T16:26:42;100477.19;;;17.80;55.03
3082;BME280;1551;51.046;7.010;2023-03-29T16:29:31;100470.41;;;17.78;55.08
3082;BME280;1551;51.046;7.010;2023-03-29T16:32:20;100470.72;;;17.70;54.97
3082;BME280;1551;51.046;7.010;2023-03-29T16:35:23;100462.16;;;17.70;55.25
3082;BME280;1551;51.046;7.010;2023-03-29T16:38:13;100464.84;;;17.67;55.50
3082;BME280;1551;51.046;7.010;2023-03-29T16:41:02;100455.53;;;17.63;55.84
3082;BME280;1551;51.046;7.010;2023-03-29T16:43:51;100455.53;;;17.63;56.20
3082;BME280;1551;51.046;7.010;2023-03-29T16:46:40;100457.53;;;17.56;56.72
3082;BME280;1551;51.046;7.010;2023-03-29T16:49:29;100450.81;;;17.52;57.23
3082;BME280;1551;51.046;7.010;2023-03-29T16:52:18;100452.59;;;17.50;58.05
3082;BME280;1551;51.046;7.010;2023-03-29T16:55:09;100458.72;;;17.48;58.21
3082;BME280;1551;51.046;7.010;2023-03-29T16:58:03;100456.22;;;17.46;58.64
3082;BME280;1551;51.046;7.010;2023-03-29T17:00:53;100452.97;;;17.41;59.16
3082;BME280;1551;51.046;7.010;2023-03-29T17:03:42;100467.78;;;17.38;59.40
3082;BME280;1551;51.046;7.010;2023-03-29T17:06:32;100461.78;;;17.37;59.83
3082;BME280;1551;51.046;7.010;2023-03-29T17:09:20;100455.75;;;17.37;60.26